Time;durP1;ratioP1;P1;durP2;ratioP2;P2;SDS_P1;SDS_P2;PMS_P1;PMS_P2;Temp;Humidity;BMP_temperature;BMP_pressure;BME280_temperature;BME280_humidity;BME280_pressure;Samples;Min_cycle;Max_cycle;Signal;HPM_P1;HPM_P2
2022/04/26 03:36:43;;;;;;;24.83;19.17;;;12.80;99.90;;;;;;5033211;28;20079;-76
2022/04/26 03:39:10;;;;;;;22.60;18.35;;;12.80;99.90;;;;;;5033297;28;20031;-76
2022/04/26 03:41:37;;;;;;;22.40;18.47;;;12.80;99.90;;;;;;5032999;28;20064;-75
2022/04/26 03:44:03;;;;;;;20.80;16.70;;;12.80;99.90;;;;;;5033124;28;20519;-76
2022/04/26 03:46:29;;;;;;;20.63;17.27;;;12.90;99.90;;;;;;5031730;28;20354;-76
2022/04/26 03:48:55;;;;;;;20.52;16.05;;;13.00;99.90;;;;;;5032969;28;20044;-75
2022/04/26 03:51:20;;;;;;;15.90;14.20;;;12.90;99.90;;;;;;5032174;28;20512;-76
2022/04/26 03:53:49;;;;;;;19.73;16.17;;;12.90;99.90;;;;;;5032866;28;20367;-75
2022/04/26 03:56:14;;;;;;;17.38;14.23;;;12.80;99.90;;;;;;5031542;28;20080;-75
2022/04/26 03:58:40;;;;;;;15.77;13.43;;;12.80;99.90;;;;;;5031163;28;20029;-74
2022/04/26 04:01:06;;;;;;;17.63;14.65;;;12.80;99.90;;;;;;5032787;28;20032;-76
2022/04/26 04:03:32;;;;;;;15.60;13.60;;;12.70;99.80;;;;;;5032690;28;20026;-76
2022/04/26 04:05:58;;;;;;;15.65;13.75;;;12.90;99.80;;;;;;5032475;28;20018;-76
2022/04/26 04:08:23;;;;;;;17.77;14.90;;;13.00;99.50;;;;;;5032492;28;20498;-75
2022/04/26 04:10:49;;;;;;;17.63;14.15;;;13.10;99.20;;;;;;5031086;28;20021;-77
2022/04/26 04:13:16;;;;;;;18.60;15.23;;;13.20;99.00;;;;;;5031130;28;20132;-76
2022/04/26 04:15:42;;;;;;;15.18;13.25;;;13.20;98.70;;;;;;5032248;28;20525;-75
2022/04/26 04:19:17;;;;;;;15.65;13.98;;;13.20;98.50;;;;;;5032409;28;20029;-77
2022/04/26 04:20:54;;;;;;;17.30;13.90;;;13.30;98.30;;;;;;5032265;28;20028;-75
2022/04/26 04:23:21;;;;;;;17.52;13.40;;;13.30;98.20;;;;;;5032299;28;20043;-77
2022/04/26 04:25:46;;;;;;;17.38;13.60;;;13.20;98.10;;;;;;5032427;28;20018;-78
2022/04/26 04:28:12;;;;;;;17.10;13.35;;;13.20;98.10;;;;;;5032284;28;20025;-77
2022/04/26 04:30:38;;;;;;;16.85;14.18;;;13.10;98.00;;;;;;5032651;28;20025;-76
2022/04/26 04:33:04;;;;;;;16.23;14.15;;;13.00;98.00;;;;;;5032067;28;20041;-78
2022/04/26 04:35:29;;;;;;;15.13;13.52;;;13.00;98.30;;;;;;5029901;28;20095;-76
2022/04/26 04:37:55;;;;;;;16.08;13.65;;;13.00;98.10;;;;;;5032114;28;20552;-77
2022/04/26 04:40:21;;;;;;;14.50;12.68;;;13.10;98.10;;;;;;5031851;28;20041;-76
2022/04/26 04:42:47;;;;;;;14.45;11.85;;;13.20;97.70;;;;;;5032210;28;20456;-76
2022/04/26 04:45:12;;;;;;;12.63;11.15;;;13.30;97.10;;;;;;5031853;28;20363;-75
2022/04/26 04:47:38;;;;;;;13.93;12.30;;;13.50;97.00;;;;;;5030504;28;20103;-77
2022/04/26 04:50:04;;;;;;;14.98;12.02;;;13.80;96.30;;;;;;5031376;28;20037;-76
2022/04/26 04:52:30;;;;;;;15.40;11.63;;;14.10;96.00;;;;;;5030653;28;20541;-77
2022/04/26 04:54:56;;;;;;;13.30;11.30;;;14.50;95.40;;;;;;5031823;28;20054;-76
2022/04/26 04:57:21;;;;;;;15.93;11.10;;;14.70;93.70;;;;;;5031763;28;20026;-78
2022/04/26 04:59:48;;;;;;;14.20;11.68;;;14.50;93.50;;;;;;5031693;28;20047;-77
2022/04/26 05:02:13;;;;;;;14.30;11.32;;;14.30;93.70;;;;;;5031543;28;20021;-78
2022/04/26 05:04:42;;;;;;;13.80;12.10;;;14.60;93.60;;;;;;5030900;28;20775;-79
2022/04/26 05:07:09;;;;;;;12.43;11.23;;;14.80;93.70;;;;;;5031990;28;20160;-79
2022/04/26 05:09:34;;;;;;;11.88;10.68;;;15.20;92.50;;;;;;5033232;28;20029;-78
2022/04/26 05:12:00;;;;;;;11.63;10.52;;;16.00;92.10;;;;;;5035506;28;20041;-77
2022/04/26 05:14:26;;;;;;;11.50;10.30;;;16.90;90.50;;;;;;5035941;28;20111;-76
2022/04/26 05:16:52;;;;;;;13.10;11.30;;;17.80;87.80;;;;;;5035747;28;20477;-79
2022/04/26 05:19:18;;;;;;;11.40;10.18;;;18.60;83.60;;;;;;5034052;28;20025;-78
2022/04/26 05:21:43;;;;;;;14.38;11.57;;;19.20;80.90;;;;;;5035032;28;20029;-79
2022/04/26 05:26:53;;;;;;;10.60;9.38;;;20.60;72.70;;;;;;5035499;28;20514;-78
2022/04/26 05:29:19;;;;;;;10.88;9.75;;;20.80;70.90;;;;;;5035255;28;20068;-78
2022/04/26 05:31:45;;;;;;;10.57;9.50;;;21.10;68.80;;;;;;5067111;28;20044;-75
2022/04/26 05:34:11;;;;;;;10.48;9.35;;;21.70;66.90;;;;;;5035585;28;20036;-77
2022/04/26 05:36:36;;;;;;;10.90;9.70;;;22.60;64.70;;;;;;5034371;28;20041;-76
2022/04/26 05:39:02;;;;;;;12.13;9.50;;;23.40;61.40;;;;;;5035140;28;20101;-76
2022/04/26 05:41:28;;;;;;;11.23;10.18;;;24.30;59.40;;;;;;5034745;28;20045;-80
2022/04/26 05:43:54;;;;;;;13.90;10.05;;;25.10;56.60;;;;;;5035269;28;20486;-78
2022/04/26 05:46:20;;;;;;;12.32;10.43;;;25.80;54.60;;;;;;5034844;28;20037;-79
2022/04/26 05:48:46;;;;;;;10.50;9.43;;;26.00;52.90;;;;;;5034753;28;20053;-79
2022/04/26 05:51:12;;;;;;;11.27;10.00;;;26.50;52.00;;;;;;5034974;28;20449;-82
2022/04/26 05:53:37;;;;;;;11.90;10.32;;;27.00;50.60;;;;;;5034206;28;20474;-78
2022/04/26 05:56:05;;;;;;;11.95;10.80;;;26.20;50.00;;;;;;5034797;28;20025;-79
2022/04/26 05:58:31;;;;;;;11.75;10.65;;;25.90;50.70;;;;;;5034616;28;20036;-78
2022/04/26 06:00:57;;;;;;;11.85;10.32;;;26.40;50.90;;;;;;5034522;28;20028;-79
2022/04/26 06:03:23;;;;;;;12.85;10.60;;;27.50;48.90;;;;;;5034737;28;20449;-78
2022/04/26 06:05:49;;;;;;;10.48;9.48;;;27.20;47.70;;;;;;5034722;28;20017;-78
2022/04/26 06:08:15;;;;;;;11.20;10.18;;;26.00;48.20;;;;;;5035234;28;20486;-76
2022/04/26 06:10:41;;;;;;;15.63;11.60;;;24.10;50.90;;;;;;5034077;28;20076;-76
2022/04/26 06:13:08;;;;;;;13.13;10.50;;;22.10;55.00;;;;;;5034540;28;20042;-77
2022/04/26 06:15:34;;;;;;;15.00;10.20;;;20.70;58.70;;;;;;5034278;28;20104;-78
2022/04/26 06:18:00;;;;;;;14.93;10.48;;;20.00;61.20;;;;;;5033625;28;20035;-78
2022/04/26 06:20:26;;;;;;;12.55;9.50;;;20.20;64.50;;;;;;5032719;28;20026;-77
2022/04/26 06:22:52;;;;;;;11.30;9.60;;;21.60;60.60;;;;;;5033276;28;20021;-78
2022/04/26 06:25:17;;;;;;;11.90;9.80;;;22.70;58.10;;;;;;5032826;28;20026;-77
2022/04/26 06:27:43;;;;;;;10.98;9.93;;;23.90;54.70;;;;;;5066600;28;20026;-86
2022/04/26 06:30:10;;;;;;;10.50;9.48;;;24.90;52.10;;;;;;5035859;28;20095;-87
2022/04/26 06:32:35;;;;;;;10.40;9.30;;;25.30;50.80;;;;;;5035347;28;20531;-84
2022/04/26 06:35:01;;;;;;;16.25;9.77;;;25.10;49.60;;;;;;5032580;28;20109;-80
2022/04/26 06:37:27;;;;;;;14.68;10.07;;;25.10;50.50;;;;;;5034517;28;20075;-80
2022/04/26 06:39:53;;;;;;;11.80;10.30;;;25.40;49.90;;;;;;5034356;28;20049;-79
2022/04/26 06:42:20;;;;;;;14.52;10.30;;;25.80;48.60;;;;;;5035191;28;20411;-80
2022/04/26 06:44:46;;;;;;;11.15;9.50;;;25.70;48.60;;;;;;5037079;28;20452;-78
2022/04/26 06:47:11;;;;;;;12.98;9.38;;;25.70;47.70;;;;;;5067202;28;20032;-80
2022/04/26 06:49:37;;;;;;;12.95;10.27;;;25.70;47.60;;;;;;5034096;28;20479;-79
2022/04/26 06:52:03;;;;;;;11.63;8.77;;;25.60;47.60;;;;;;5033088;28;20041;-80
2022/04/26 06:54:29;;;;;;;11.77;8.50;;;25.30;47.70;;;;;;5034068;28;20433;-79
2022/04/26 06:56:55;;;;;;;13.07;8.85;;;24.90;48.60;;;;;;5033936;28;20025;-81
2022/04/26 06:59:20;;;;;;;9.27;7.90;;;25.20;47.90;;;;;;5032427;28;20075;-80
2022/04/26 07:01:52;;;;;;;9.75;7.85;;;25.10;47.50;;;;;;5033766;28;20026;-79
2022/04/26 07:04:19;;;;;;;9.32;7.72;;;25.70;47.70;;;;;;5033822;28;20390;-79
2022/04/26 07:06:45;;;;;;;;;;;27.30;46.30;;;;;;5033445;28;20033;-80
2022/04/26 07:09:11;;;;;;;12.33;7.60;;;28.80;46.50;;;;;;5033823;28;19905;-79
2022/04/26 07:11:37;;;;;;;6.13;5.53;;;29.50;42.20;;;;;;5033549;28;20419;-80
2022/04/26 07:14:02;;;;;;;6.13;5.07;;;30.20;40.00;;;;;;5032186;28;20111;-79
2022/04/26 07:16:28;;;;;;;8.27;5.95;;;29.90;38.40;;;;;;5033434;28;20028;-78
2022/04/26 07:18:55;;;;;;;8.70;6.30;;;28.70;39.60;;;;;;5033491;28;20099;-81
2022/04/26 07:21:21;;;;;;;10.05;6.78;;;28.20;41.00;;;;;;5033429;28;20033;-80
2022/04/26 07:23:47;;;;;;;10.93;8.73;;;28.10;41.70;;;;;;5032254;28;20033;-80
2022/04/26 07:26:13;;;;;;;8.07;6.70;;;29.20;41.70;;;;;;5031893;28;20025;-79
2022/04/26 07:28:39;;;;;;;6.78;6.07;;;30.60;39.10;;;;;;5032988;28;20032;-80
2022/04/26 07:31:05;;;;;;;7.80;4.37;;;31.50;38.10;;;;;;5032546;28;20479;-80
2022/04/26 07:36:15;;;;;;;5.65;3.90;;;29.80;35.50;;;;;;5033476;28;20084;-79
2022/04/26 07:38:41;;;;;;;8.52;5.57;;;27.30;38.50;;;;;;5032505;28;20053;-79
2022/04/26 07:41:07;;;;;;;8.60;5.93;;;25.30;41.60;;;;;;5033225;28;20080;-80
2022/04/26 07:43:34;;;;;;;10.60;6.20;;;23.70;44.40;;;;;;5032770;28;20113;-79
2022/04/26 07:45:59;;;;;;;11.52;5.22;;;22.50;47.10;;;;;;5032745;28;20036;-80
2022/04/26 07:48:26;;;;;;;8.05;5.35;;;21.80;48.60;;;;;;5032863;28;20112;-81
2022/04/26 07:50:52;;;;;;;12.07;5.93;;;21.80;48.80;;;;;;5033050;28;20018;-79
2022/04/26 07:53:18;;;;;;;11.13;6.47;;;22.60;48.60;;;;;;5032807;28;20076;-80
2022/04/26 07:55:43;;;;;;;6.95;6.25;;;22.90;47.60;;;;;;5032076;28;20026;-79
2022/04/26 07:58:10;;;;;;;8.60;5.78;;;22.80;48.00;;;;;;5032528;28;20767;-79
2022/04/26 08:00:36;;;;;;;7.97;5.45;;;23.50;47.60;;;;;;5032728;28;20025;-79
2022/04/26 08:03:02;;;;;;;11.45;5.80;;;25.20;45.70;;;;;;5032527;28;20033;-79
2022/04/26 08:05:30;;;;;;;7.97;6.17;;;26.40;42.70;;;;;;5032623;28;20036;-79
2022/04/26 08:07:56;;;;;;;11.48;6.32;;;25.70;42.20;;;;;;5064141;28;20292;-79
2022/04/26 08:10:22;;;;;;;8.32;5.63;;;25.20;43.10;;;;;;5032387;28;20029;-82
2022/04/26 08:12:47;;;;;;;11.48;6.00;;;24.30;44.20;;;;;;5032398;28;20515;-80
2022/04/26 08:15:14;;;;;;;7.78;5.65;;;23.30;46.30;;;;;;5031771;28;20268;-80
2022/04/26 08:17:41;;;;;;;10.52;6.68;;;22.30;47.60;;;;;;5032075;28;20545;-80
2022/04/26 08:20:10;;;;;;;6.47;5.88;;;21.70;49.00;;;;;;5032429;28;20093;-80
2022/04/26 08:22:37;;;;;;;9.98;5.95;;;21.40;50.00;;;;;;5032303;28;20086;-80
2022/04/26 08:27:47;;;;;;;10.95;6.50;;;20.80;51.30;;;;;;5032274;28;20041;-80
2022/04/26 08:30:13;;;;;;;8.60;5.38;;;20.30;52.50;;;;;;5032214;28;20017;-81
2022/04/26 08:32:46;;;;;;;7.88;5.30;;;19.90;52.90;;;;;;5031267;28;20042;-80
2022/04/26 08:35:15;;;;;;;11.32;5.72;;;19.70;53.80;;;;;;5031978;28;20063;-79
2022/04/26 08:37:43;;;;;;;8.80;5.35;;;19.50;54.50;;;;;;5031912;28;20056;-79
2022/04/26 08:40:09;;;;;;;;;;;19.60;54.60;;;;;;5031054;28;20191;-80
2022/04/26 08:42:39;;;;;;;9.57;5.32;;;20.40;54.00;;;;;;5030724;28;20375;-80
2022/04/26 08:45:07;;;;;;;10.77;4.70;;;20.90;52.10;;;;;;5031497;28;20111;-81
2022/04/26 08:53:05;;;;;;;10.20;5.18;;;21.80;49.80;;;;;;5011949;28;20056;-80
2022/04/26 08:55:32;;;;;;;9.15;4.80;;;22.70;49.40;;;;;;5011695;28;20076;-80
2022/04/26 08:57:58;;;;;;;8.98;4.65;;;24.50;46.90;;;;;;5028800;28;20021;-80
2022/04/26 09:00:25;;;;;;;7.93;4.93;;;26.50;43.60;;;;;;5030460;28;20060;-80
2022/04/26 09:03:07;;;;;;;8.38;5.22;;;27.60;40.90;;;;;;5029601;28;20017;-78
2022/04/26 09:05:34;;;;;;;4.80;4.15;;;28.30;40.50;;;;;;5031878;28;20026;-79
2022/04/26 09:08:00;;;;;;;7.07;4.47;;;28.80;38.20;;;;;;5030291;28;20387;-80
2022/04/26 09:10:29;;;;;;;4.43;4.03;;;28.80;37.60;;;;;;5030390;28;20402;-80
2022/04/26 09:13:08;;;;;;;8.73;4.53;;;28.00;37.30;;;;;;5031554;28;20041;-81
2022/04/26 09:15:37;;;;;;;8.80;5.15;;;26.50;39.00;;;;;;5030311;28;20479;-78
2022/04/26 09:18:15;;;;;;;6.88;4.95;;;24.90;42.10;;;;;;5031611;28;20033;-78
2022/04/26 09:20:42;;;;;;;5.43;4.90;;;23.80;43.00;;;;;;5031205;28;20025;-81
2022/04/26 09:23:15;;;;;;;10.90;5.30;;;22.60;45.10;;;;;;5030108;28;20028;-80
2022/04/26 09:25:41;;;;;;;8.70;5.50;;;22.00;47.00;;;;;;5031633;28;20029;-80
2022/04/26 09:28:08;;;;;;;9.10;5.10;;;21.30;47.80;;;;;;5031438;28;20047;-78
2022/04/26 09:30:35;;;;;;;9.20;5.13;;;20.80;49.00;;;;;;5031675;28;20029;-80
2022/04/26 09:33:00;;;;;;;7.88;5.05;;;20.60;49.60;;;;;;5031401;28;20033;-82
2022/04/26 09:35:29;;;;;;;11.75;5.43;;;20.10;50.40;;;;;;5030454;28;20548;-79
2022/04/26 09:37:55;;;;;;;7.57;5.03;;;19.70;51.90;;;;;;5011831;28;20029;-78
2022/04/26 09:40:26;;;;;;;8.48;5.70;;;19.40;52.50;;;;;;5011581;28;20050;-80
2022/04/26 09:42:52;;;;;;;6.82;5.65;;;19.20;53.30;;;;;;5011705;28;20065;-80
2022/04/26 09:45:17;;;;;;;10.05;7.78;;;18.90;54.20;;;;;;5011453;28;20434;-80
2022/04/26 09:47:45;;;;;;;9.85;4.80;;;19.00;54.90;;;;;;5011699;28;20018;-80
2022/04/26 09:50:15;;;;;;;10.55;5.90;;;19.30;53.80;;;;;;5011815;28;20037;-81
2022/04/26 09:52:42;;;;;;;5.43;4.72;;;19.50;54.00;;;;;;5012314;28;20066;-80
2022/04/26 09:55:10;;;;;;;7.30;4.97;;;19.80;53.00;;;;;;5029586;28;20025;-80
2022/04/26 09:57:37;;;;;;;10.25;4.88;;;20.20;51.70;;;;;;5034991;28;20033;-79
2022/04/26 10:00:06;;;;;;;8.35;4.75;;;20.60;51.90;;;;;;5033433;28;20033;-80
2022/04/26 10:02:32;;;;;;;6.80;4.47;;;21.40;49.80;;;;;;5034662;28;20108;-81
2022/04/26 10:05:21;;;;;;;6.85;4.50;;;22.00;48.60;;;;;;5033341;28;20038;-80
2022/04/26 10:07:48;;;;;;;6.07;5.07;;;22.50;48.00;;;;;;5034365;28;20033;-80
2022/04/26 10:10:15;;;;;;;8.30;5.07;;;22.90;46.60;;;;;;5032338;28;20478;-79
2022/04/26 10:12:42;;;;;;;6.45;4.68;;;23.00;46.20;;;;;;5034458;28;20045;-81
2022/04/26 10:15:08;;;;;;;6.25;4.95;;;22.50;46.60;;;;;;5034701;28;20022;-79
2022/04/26 10:17:34;;;;;;;9.43;5.22;;;22.10;47.60;;;;;;5032683;28;20037;-80
2022/04/26 10:20:01;;;;;;;6.68;5.20;;;21.90;48.20;;;;;;5034645;28;20040;-81
2022/04/26 10:22:56;;;;;;;7.28;5.65;;;21.60;48.60;;;;;;5034220;28;20083;-80
2022/04/26 10:25:23;;;;;;;6.55;5.10;;;21.20;49.10;;;;;;5034478;28;20033;-79
2022/04/26 10:28:16;;;;;;;9.00;4.68;;;20.70;49.90;;;;;;5033367;28;20025;-81
2022/04/26 10:30:52;;;;;;;5.60;4.35;;;20.20;50.70;;;;;;5034468;28;20070;-80
2022/04/26 10:33:33;;;;;;;6.57;5.47;;;19.70;51.70;;;;;;5066062;28;20132;-79
2022/04/26 10:36:19;;;;;;;7.65;5.25;;;19.40;52.60;;;;;;5033199;28;20026;-80
2022/04/26 10:39:09;;;;;;;10.45;5.53;;;19.30;53.30;;;;;;5065719;28;20053;-79
2022/04/26 10:41:40;;;;;;;13.32;5.97;;;19.20;53.30;;;;;;5034164;28;20057;-80
2022/04/26 10:44:26;;;;;;;10.45;5.85;;;19.20;53.90;;;;;;5033407;28;20382;-80
2022/04/26 10:46:59;;;;;;;8.07;5.18;;;19.30;53.90;;;;;;5034280;28;20037;-79
2022/04/26 10:49:39;;;;;;;7.05;4.82;;;19.40;53.60;;;;;;5034185;28;20091;-79
2022/04/26 10:52:10;;;;;;;10.48;4.47;;;19.60;52.80;;;;;;5033985;28;20116;-78
2022/04/26 10:55:07;;;;;;;6.10;4.03;;;19.60;53.00;;;;;;5033638;28;20017;-81
2022/04/26 10:57:39;;;;;;;6.63;4.55;;;19.50;53.30;;;;;;5033740;28;20535;-80
2022/04/26 11:00:26;;;;;;;5.95;4.18;;;19.30;54.00;;;;;;5033389;28;20037;-80
2022/04/26 11:02:51;;;;;;;7.80;5.32;;;19.10;54.80;;;;;;5033677;28;20025;-78
2022/04/26 11:05:24;;;;;;;5.43;4.13;;;18.80;55.30;;;;;;5033883;28;20601;-78
2022/04/26 11:07:50;;;;;;;8.73;5.45;;;18.70;56.20;;;;;;5033105;28;20025;-77
2022/04/26 11:10:19;;;;;;;7.32;4.72;;;18.60;56.50;;;;;;5035243;28;20030;-79
2022/04/26 11:12:45;;;;;;;7.22;4.60;;;18.70;56.20;;;;;;5032568;28;20083;-80
2022/04/26 11:15:19;;;;;;;8.38;5.13;;;18.70;56.10;;;;;;5033879;28;20048;-79
2022/04/26 11:17:46;;;;;;;5.57;4.38;;;18.80;56.30;;;;;;5034183;28;20052;-78
2022/04/26 11:20:20;;;;;;;6.53;4.78;;;19.00;55.60;;;;;;5032357;28;20110;-79
2022/04/26 11:22:56;;;;;;;5.03;4.20;;;19.00;55.10;;;;;;5033279;28;20030;-80
2022/04/26 11:28:16;;;;;;;7.30;5.07;;;18.90;55.30;;;;;;5033819;28;20056;-79
2022/04/26 11:30:46;;;;;;;9.82;4.88;;;19.00;55.20;;;;;;5033431;28;20024;-79
2022/04/26 11:33:20;;;;;;;8.23;4.90;;;19.10;55.10;;;;;;5033342;28;20034;-80
2022/04/26 11:35:53;;;;;;;9.60;4.75;;;19.10;54.90;;;;;;5065752;28;20036;-81
2022/04/26 11:38:19;;;;;;;11.27;4.93;;;18.90;54.80;;;;;;5065457;28;20495;-79
2022/04/26 11:40:51;;;;;;;7.53;5.05;;;18.60;55.80;;;;;;5031139;28;20050;-79
2022/04/26 11:43:19;;;;;;;9.20;5.15;;;18.40;56.20;;;;;;5033080;28;20028;-80
2022/04/26 11:45:49;;;;;;;9.43;4.90;;;18.30;57.30;;;;;;5033032;28;20395;-79
2022/04/26 11:48:19;;;;;;;5.90;5.05;;;18.10;56.90;;;;;;5032988;28;20025;-80
2022/04/26 11:50:48;;;;;;;6.47;4.63;;;18.10;57.30;;;;;;5033007;28;20033;-78
2022/04/26 11:53:17;;;;;;;5.90;4.35;;;18.00;56.90;;;;;;5033112;28;20180;-80
2022/04/26 11:55:44;;;;;;;9.75;4.57;;;17.90;56.90;;;;;;5032024;28;20029;-78
2022/04/26 11:58:19;;;;;;;5.13;4.20;;;17.90;57.20;;;;;;5047758;28;20026;-79
2022/04/26 12:01:02;;;;;;;6.68;3.90;;;17.80;57.30;;;;;;5032585;28;20021;-78
2022/04/26 12:03:32;;;;;;;8.90;4.60;;;17.70;57.50;;;;;;5032778;28;20029;-79
2022/04/26 12:06:03;;;;;;;7.05;4.55;;;17.60;57.90;;;;;;5031354;28;20399;-80
2022/04/26 12:08:34;;;;;;;6.05;4.25;;;17.70;58.60;;;;;;5033064;28;20104;-79
2022/04/26 12:11:16;;;;;;;8.55;4.50;;;17.80;57.80;;;;;;5031266;28;20376;-80
2022/04/26 12:13:42;;;;;;;10.20;4.15;;;17.90;57.60;;;;;;5031789;28;20479;-81
2022/04/26 12:16:19;;;;;;;5.90;4.38;;;17.90;57.40;;;;;;5032364;28;20096;-79
2022/04/26 12:18:54;;;;;;;8.77;4.47;;;18.00;58.20;;;;;;5030287;28;20029;-80
2022/04/26 12:21:21;;;;;;;9.55;4.38;;;18.00;57.30;;;;;;5032157;28;20391;-80
2022/04/26 12:23:47;;;;;;;6.03;4.05;;;18.00;57.20;;;;;;5030773;28;20029;-78
2022/04/26 12:26:14;;;;;;;8.82;4.75;;;18.00;57.40;;;;;;5030825;28;20022;-82
2022/04/26 12:28:51;;;;;;;5.67;3.73;;;18.00;57.30;;;;;;5032208;28;20447;-80
2022/04/26 12:31:21;;;;;;;6.00;4.03;;;17.90;57.30;;;;;;5031191;28;20317;-79
2022/04/26 12:33:52;;;;;;;7.32;4.22;;;17.70;57.80;;;;;;5032123;28;20423;-80
2022/04/26 12:36:18;;;;;;;8.13;4.15;;;17.70;58.10;;;;;;5031977;28;20017;-80
2022/04/26 12:38:50;;;;;;;5.93;3.50;;;18.00;57.60;;;;;;5032147;28;20479;-81
2022/04/26 12:41:16;;;;;;;5.75;3.85;;;18.10;57.00;;;;;;5031794;28;20046;-81
2022/04/26 12:43:43;;;;;;;5.88;4.03;;;18.20;56.60;;;;;;5032049;28;20186;-79
2022/04/26 12:46:09;;;;;;;6.00;3.92;;;18.40;56.30;;;;;;5030950;28;20108;-80
2022/04/26 12:51:22;;;;;;;5.65;3.53;;;18.20;56.10;;;;;;5031877;28;20482;-79
2022/04/26 12:53:50;;;;;;;9.40;4.15;;;18.10;56.30;;;;;;5031983;28;20029;-80
2022/04/26 12:56:16;;;;;;;9.85;3.90;;;18.10;56.50;;;;;;5031216;28;20013;-79
2022/04/26 12:58:46;;;;;;;5.65;3.92;;;18.00;56.50;;;;;;5031920;28;20018;-81
2022/04/26 13:01:13;;;;;;;6.20;3.60;;;17.90;56.90;;;;;;5032432;28;20026;-80
2022/04/26 13:03:40;;;;;;;6.93;3.42;;;17.90;56.60;;;;;;5031103;28;20026;-80
2022/04/26 13:06:12;;;;;;;5.35;3.20;;;18.10;56.50;;;;;;5064205;28;20034;-80
2022/04/26 13:08:40;;;;;;;12.32;4.18;;;18.20;55.70;;;;;;5031789;28;20390;-82
2022/04/26 13:11:07;;;;;;;5.75;4.35;;;18.20;55.50;;;;;;5031655;28;20041;-80
2022/04/26 13:13:35;;;;;;;7.65;4.28;;;18.30;55.50;;;;;;5031220;28;20033;-79
2022/04/26 13:16:01;;;;;;;7.13;4.05;;;18.40;55.40;;;;;;5031855;28;20056;-79
2022/04/26 13:18:28;;;;;;;5.50;4.00;;;18.50;55.00;;;;;;5032151;28;20518;-78
2022/04/26 13:20:56;;;;;;;7.28;4.45;;;18.50;54.60;;;;;;5033970;28;20044;-80
2022/04/26 13:23:22;;;;;;;;;;;18.50;55.50;;;;;;5035551;28;20127;-78
2022/04/26 13:25:48;;;;;;;5.72;3.78;;;18.40;54.80;;;;;;5065203;28;19936;-82
2022/04/26 13:28:14;;;;;;;7.45;3.42;;;18.30;55.00;;;;;;5031800;28;20032;-79
2022/04/26 13:30:41;;;;;;;7.07;3.08;;;18.30;55.00;;;;;;5032973;28;20041;-77
2022/04/26 13:33:07;;;;;;;6.60;3.10;;;18.20;54.50;;;;;;5036395;28;20128;-80
2022/04/26 13:35:34;;;;;;;7.38;3.60;;;18.10;54.50;;;;;;5035909;28;20029;-80
2022/04/26 13:38:01;;;;;;;8.20;3.00;;;17.90;54.50;;;;;;5035926;28;20132;-79
2022/04/26 13:40:27;;;;;;;3.50;2.70;;;17.80;54.20;;;;;;5034245;28;20042;-80
2022/04/26 13:42:53;;;;;;;6.47;3.45;;;17.60;54.50;;;;;;5035603;28;20384;-80
2022/04/26 13:45:20;;;;;;;6.20;3.17;;;17.60;54.80;;;;;;5033842;28;20051;-80
2022/04/26 13:47:46;;;;;;;5.30;2.83;;;17.60;54.60;;;;;;5035402;28;20116;-80
2022/04/26 13:50:12;;;;;;;7.25;3.38;;;17.60;54.60;;;;;;5035245;28;20441;-79
2022/04/26 13:52:41;;;;;;;3.17;2.88;;;17.60;54.70;;;;;;5035350;28;20042;-78
2022/04/26 13:55:07;;;;;;;5.00;3.05;;;17.60;54.80;;;;;;5035180;28;20018;-80
2022/04/26 13:57:33;;;;;;;8.23;3.15;;;17.60;55.00;;;;;;5034509;28;20152;-80
2022/04/26 13:59:59;;;;;;;6.13;4.20;;;17.60;55.10;;;;;;5035169;28;20018;-80
2022/04/26 14:02:25;;;;;;;4.15;2.97;;;17.70;55.80;;;;;;5035257;28;20029;-79
2022/04/26 14:04:51;;;;;;;5.97;3.00;;;17.70;54.60;;;;;;5035151;28;20071;-79
2022/04/26 14:07:17;;;;;;;5.72;2.55;;;17.70;54.50;;;;;;5035285;28;20096;-80
2022/04/26 14:09:44;;;;;;;5.28;2.90;;;17.70;54.50;;;;;;5033881;28;20104;-79
2022/04/26 14:12:11;;;;;;;3.93;2.87;;;17.80;54.40;;;;;;5033706;28;20084;-80
2022/04/26 14:22:52;;;;;;;4.38;3.20;;;17.90;54.40;;;;;;5035012;28;20040;-80
2022/04/26 14:25:18;;;;;;;5.10;3.08;;;17.80;53.80;;;;;;5033644;28;20030;-79
2022/04/26 14:27:47;;;;;;;9.38;3.47;;;17.60;54.40;;;;;;5035133;28;20037;-80
2022/04/26 14:30:13;;;;;;;3.50;2.60;;;17.50;55.00;;;;;;5034150;28;20049;-81
2022/04/26 14:32:39;;;;;;;3.88;2.90;;;17.50;54.90;;;;;;5034779;28;20116;-79
2022/04/26 14:35:06;;;;;;;4.97;2.80;;;17.50;54.60;;;;;;5033148;28;20133;-79
2022/04/26 14:37:33;;;;;;;5.03;2.20;;;17.40;54.40;;;;;;5034900;28;20131;-79
2022/04/26 14:39:59;;;;;;;4.55;2.72;;;17.40;54.20;;;;;;5034257;28;20125;-81
2022/04/26 14:42:28;;;;;;;5.65;2.40;;;17.30;54.20;;;;;;5033538;28;20036;-81
2022/04/26 14:44:54;;;;;;;7.00;2.60;;;17.20;54.50;;;;;;5032894;28;20029;-78
2022/04/26 14:47:20;;;;;;;7.43;2.85;;;17.20;54.80;;;;;;5033268;28;20041;-79
2022/04/26 14:49:47;;;;;;;4.60;2.42;;;17.00;55.10;;;;;;5033874;28;20458;-79
2022/04/26 14:52:21;;;;;;;4.88;2.78;;;16.90;55.20;;;;;;5034339;28;20057;-80
2022/04/26 14:54:50;;;;;;;9.20;2.95;;;16.90;55.50;;;;;;5034282;28;20434;-78
2022/04/26 14:57:20;;;;;;;8.68;2.80;;;16.80;55.90;;;;;;5034105;28;20049;-80
2022/04/26 14:59:47;;;;;;;9.00;3.08;;;16.80;56.00;;;;;;5033872;28;20104;-79
2022/04/26 15:02:18;;;;;;;6.40;2.90;;;16.70;55.90;;;;;;5031921;28;20029;-82
2022/04/26 15:04:48;;;;;;;3.60;2.53;;;16.50;56.60;;;;;;5033560;28;20116;-79
2022/04/26 15:07:14;;;;;;;4.28;2.50;;;16.50;56.40;;;;;;5033525;28;20044;-80
2022/04/26 15:09:44;;;;;;;3.17;2.87;;;16.50;56.60;;;;;;5065573;28;20025;-80
2022/04/26 15:17:48;;;;;;;7.10;2.45;;;16.40;57.20;;;;;;5033398;28;20087;-79
2022/04/26 15:20:16;;;;;;;9.73;2.97;;;16.40;57.10;;;;;;5033856;28;20139;-79
2022/04/26 15:22:42;;;;;;;7.93;3.47;;;16.40;57.40;;;;;;5033624;28;20479;-79
2022/04/26 15:25:09;;;;;;;9.35;4.10;;;16.40;57.60;;;;;;5033251;28;20032;-79
2022/04/26 15:27:39;;;;;;;6.95;2.85;;;16.40;58.00;;;;;;5032172;28;20025;-79
2022/04/26 15:30:07;;;;;;;9.27;5.30;;;16.40;57.70;;;;;;5033264;28;20649;-81
2022/04/26 15:32:33;;;;;;;12.13;3.10;;;16.30;57.90;;;;;;5033293;28;20509;-79
2022/04/26 15:34:59;;;;;;;6.07;2.67;;;16.30;58.30;;;;;;5033088;28;20043;-78
2022/04/26 15:37:25;;;;;;;7.60;3.75;;;16.30;58.30;;;;;;5033723;28;20108;-80
2022/04/26 15:39:54;;;;;;;6.30;2.97;;;16.30;58.50;;;;;;5034754;28;20104;-79
2022/04/26 15:42:21;;;;;;;9.00;2.75;;;16.30;58.50;;;;;;5033784;28;20032;-80
2022/04/26 15:44:48;;;;;;;6.47;3.67;;;16.20;58.60;;;;;;5033435;28;20025;-80
2022/04/26 15:47:14;;;;;;;4.57;3.55;;;16.20;59.10;;;;;;5033088;28;20061;-79
2022/04/26 15:49:40;;;;;;;3.33;2.60;;;16.10;59.30;;;;;;5031959;28;20509;-80
2022/04/26 15:52:07;;;;;;;7.53;2.50;;;16.10;59.60;;;;;;5033172;28;20041;-79
2022/04/26 15:54:33;;;;;;;8.43;3.17;;;16.10;59.50;;;;;;5032811;28;20548;-79
2022/04/26 15:56:59;;;;;;;6.27;2.70;;;16.10;59.60;;;;;;5032677;28;20104;-78
2022/04/26 15:59:25;;;;;;;3.97;2.72;;;16.00;59.60;;;;;;5032766;28;20108;-79
2022/04/26 16:01:51;;;;;;;4.90;2.72;;;16.00;59.70;;;;;;5032787;28;20368;-80
2022/04/26 16:04:16;;;;;;;7.63;2.88;;;15.90;59.40;;;;;;5032771;28;20053;-78
2022/04/26 16:06:42;;;;;;;3.72;2.97;;;15.90;59.40;;;;;;5031966;28;20025;-78
2022/04/26 16:22:53;;;;;;;7.30;2.67;;;15.60;61.30;;;;;;5031271;28;20124;-77
2022/04/26 16:25:19;;;;;;;4.90;2.30;;;15.50;61.30;;;;;;5032425;28;20104;-80
2022/04/26 16:27:48;;;;;;;4.85;2.60;;;15.50;61.00;;;;;;5030779;28;20022;-80
2022/04/26 16:30:15;;;;;;;3.50;2.55;;;15.40;61.20;;;;;;5032512;28;20025;-77
2022/04/26 16:32:41;;;;;;;7.40;3.67;;;15.40;61.20;;;;;;5032180;28;20033;-79
2022/04/26 16:35:08;;;;;;;6.82;2.90;;;15.40;61.30;;;;;;5031908;28;20018;-79
2022/04/26 16:37:38;;;;;;;5.68;2.72;;;15.40;61.30;;;;;;5032058;28;20455;-80
2022/04/26 16:40:05;;;;;;;7.80;2.65;;;15.40;61.40;;;;;;5032198;28;20053;-80
2022/04/26 16:42:31;;;;;;;8.13;3.30;;;15.40;61.60;;;;;;5064282;28;20095;-78
2022/04/26 16:44:57;;;;;;;5.47;3.15;;;15.40;61.90;;;;;;5031935;28;20029;-79
2022/04/26 16:47:23;;;;;;;7.93;3.08;;;15.40;61.80;;;;;;5031865;28;20079;-80
2022/04/26 16:49:48;;;;;;;9.65;2.72;;;15.40;61.90;;;;;;5031922;28;20423;-81
2022/04/26 16:52:14;;;;;;;5.00;3.38;;;15.40;61.70;;;;;;5031920;28;20040;-79
2022/04/26 16:54:40;;;;;;;4.15;2.63;;;15.30;61.80;;;;;;5031144;28;20097;-78
2022/04/26 16:57:07;;;;;;;6.35;2.58;;;15.30;62.20;;;;;;5031764;28;20116;-79
2022/04/26 16:59:32;;;;;;;6.20;2.88;;;15.20;62.10;;;;;;5031753;28;20051;-79
2022/04/26 17:01:58;;;;;;;6.40;3.03;;;15.10;62.40;;;;;;5031757;28;20025;-79
2022/04/26 17:04:24;;;;;;;4.72;2.17;;;15.00;62.60;;;;;;5031527;28;20418;-79
2022/04/26 17:06:50;;;;;;;6.47;2.60;;;15.00;62.90;;;;;;5031664;28;20036;-79
2022/04/26 17:09:20;;;;;;;4.93;2.50;;;15.00;63.00;;;;;;5032109;28;20466;-79